Time;durP1;ratioP1;P1;durP2;ratioP2;P2;SDS_P1;SDS_P2;PMS_P1;PMS_P2;Temp;Humidity;BMP_temperature;BMP_pressure;BME280_temperature;BME280_humidity;BME280_pressure;Samples;Min_cycle;Max_cycle;Signal;HPM_P1;HPM_P2
2022/06/26 00:00:41;;;;;;;;;;;13.40;99.90;;;;;;4957129;28;19911;-80
2022/06/26 00:03:07;;;;;;;;;;;13.20;99.90;;;;;;4974785;28;19920;-79
2022/06/26 00:05:32;;;;;;;;;;;13.20;99.90;;;;;;4974825;28;20390;-79
2022/06/26 00:07:59;;;;;;;;;;;13.00;99.90;;;;;;4957482;28;19910;-79
2022/06/26 00:10:25;;;;;;;;;;;13.00;99.90;;;;;;4974161;28;19910;-79
2022/06/26 00:12:50;;;;;;;;;;;13.20;99.90;;;;;;4974887;28;19941;-79
2022/06/26 00:15:16;;;;;;;;;;;13.10;99.90;;;;;;4963554;28;20280;-79
2022/06/26 00:17:41;;;;;;;;;;;13.20;99.90;;;;;;4955301;29;19910;-79
2022/06/26 00:20:07;;;;;;;;;;;13.20;99.90;;;;;;4953842;28;19910;-79
2022/06/26 00:22:33;;;;;;;;;;;13.20;99.90;;;;;;4955201;29;19918;-78
2022/06/26 00:24:59;;;;;;;;;;;13.10;99.90;;;;;;4955285;29;19910;-79
2022/06/26 00:27:24;;;;;;;;;;;13.10;99.90;;;;;;4955123;29;20015;-79
2022/06/26 00:29:50;;;;;;;;;;;13.00;99.90;;;;;;4964447;28;19910;-80
2022/06/26 00:32:15;;;;;;;;;;;12.90;99.90;;;;;;4974516;28;19993;-80
2022/06/26 00:34:41;;;;;;;;;;;12.90;99.90;;;;;;4974340;28;19914;-78
2022/06/26 00:37:06;;;;;;;;;;;12.90;99.90;;;;;;4974504;28;20375;-79
2022/06/26 00:39:32;;;;;;;;;;;13.00;99.90;;;;;;4974084;28;19915;-79
2022/06/26 00:41:58;;;;;;;;;;;13.00;99.90;;;;;;4974835;28;19964;-77
2022/06/26 00:44:24;;;;;;;;;;;12.90;99.90;;;;;;4974477;28;19961;-79
2022/06/26 00:46:50;;;;;;;;;;;12.90;99.90;;;;;;4974239;28;19965;-79
2022/06/26 00:49:15;;;;;;;;;;;12.90;99.90;;;;;;4974068;28;19925;-79
2022/06/26 00:51:44;;;;;;;;;;;12.90;99.90;;;;;;4974343;28;20009;-79
2022/06/26 00:54:09;;;;;;;;;;;12.90;99.90;;;;;;4974513;28;20363;-79
2022/06/26 00:56:35;;;;;;;;;;;12.80;99.90;;;;;;4974356;28;19917;-80
2022/06/26 00:59:01;;;;;;;;;;;12.80;99.90;;;;;;4959568;28;19918;-79
2022/06/26 01:01:26;;;;;;;;;;;12.80;99.90;;;;;;4978222;28;19934;-79
2022/06/26 01:03:52;;;;;;;;;;;12.80;99.90;;;;;;4978057;28;20436;-79
2022/06/26 01:06:18;;;;;;;;;;;12.90;99.90;;;;;;4978127;28;20286;-79
2022/06/26 01:08:43;;;;;;;;;;;12.90;99.90;;;;;;4978001;28;19910;-78
2022/06/26 01:11:18;;;;;;;;;;;12.70;99.90;;;;;;4977582;28;19910;-79
2022/06/26 01:13:48;;;;;;;;;;;12.70;99.90;;;;;;4977943;28;20030;-79
2022/06/26 01:16:14;;;;;;;;;;;12.70;99.90;;;;;;4978031;28;19910;-79
2022/06/26 01:18:40;;;;;;;;;;;12.70;99.90;;;;;;4977911;28;19910;-77
2022/06/26 01:21:06;;;;;;;;;;;12.70;99.90;;;;;;4977344;28;20413;-79
2022/06/26 01:23:31;;;;;;;;;;;12.60;99.90;;;;;;4977486;28;20413;-78
2022/06/26 01:25:57;;;;;;;;;;;12.60;99.90;;;;;;4977725;28;19918;-80
2022/06/26 01:28:22;;;;;;;;;;;12.60;99.90;;;;;;4977738;28;19916;-78
2022/06/26 01:30:48;;;;;;;;;;;12.50;99.90;;;;;;4977165;28;19910;-80
2022/06/26 01:33:14;;;;;;;;;;;12.50;99.90;;;;;;4977725;28;20264;-78
2022/06/26 01:35:39;;;;;;;;;;;12.60;99.90;;;;;;4977317;28;20379;-79
2022/06/26 01:38:20;;;;;;;;;;;12.60;99.90;;;;;;4977472;28;19910;-80
2022/06/26 01:40:46;;;;;;;;;;;12.50;99.90;;;;;;4977021;28;19916;-79
2022/06/26 01:43:12;;;;;;;;;;;12.50;99.90;;;;;;4977376;28;20382;-79
2022/06/26 01:45:42;;;;;;;;;;;12.60;99.90;;;;;;4977366;28;19941;-79
2022/06/26 01:48:08;;;;;;;;;;;12.50;99.90;;;;;;4977266;28;19914;-79
2022/06/26 01:50:34;;;;;;;;;;;12.70;99.90;;;;;;4976590;28;20005;-78
2022/06/26 01:52:59;;;;;;;;;;;12.60;99.90;;;;;;4977229;28;19975;-80
2022/06/26 01:55:25;;;;;;;;;;;12.70;99.90;;;;;;4977279;28;19918;-79
2022/06/26 01:57:50;;;;;;;;;;;12.80;99.90;;;;;;4977162;28;19918;-78
2022/06/26 02:00:16;;;;;;;;;;;12.90;99.90;;;;;;4975526;28;20318;-79
2022/06/26 02:02:41;;;;;;;;;;;13.10;99.90;;;;;;4977101;28;19997;-79
2022/06/26 02:05:07;;;;;;;;;;;13.00;99.90;;;;;;4977027;28;19910;-78
2022/06/26 02:07:33;;;;;;;;;;;13.20;99.90;;;;;;4977268;28;19966;-79
2022/06/26 02:15:27;;;;;;;;;;;13.30;99.90;;;;;;4976701;28;19917;-80
2022/06/26 02:17:52;;;;;;;;;;;13.40;99.90;;;;;;4976879;28;19910;-79
2022/06/26 02:20:18;;;;;;;;;;;13.40;99.90;;;;;;4966744;28;19942;-78
2022/06/26 02:22:43;;;;;;;;;;;13.30;99.90;;;;;;4957249;29;19911;-79
2022/06/26 02:25:09;;;;;;;;;;;13.40;99.90;;;;;;4957366;29;19910;-79
2022/06/26 02:27:35;;;;;;;;;;;13.40;99.90;;;;;;4957452;29;19933;-79
2022/06/26 02:30:00;;;;;;;;;;;13.30;99.90;;;;;;4956975;28;19922;-80
2022/06/26 02:32:26;;;;;;;;;;;13.00;99.90;;;;;;4957302;29;19910;-80
2022/06/26 02:34:51;;;;;;;;;;;13.00;99.90;;;;;;4957050;29;20269;-79
2022/06/26 02:37:17;;;;;;;;;;;12.90;99.90;;;;;;4957219;29;20002;-80
2022/06/26 02:39:43;;;;;;;;;;;12.80;99.90;;;;;;4956854;28;19914;-79
2022/06/26 02:42:08;;;;;;;;;;;12.70;99.90;;;;;;4957076;29;19911;-78
2022/06/26 02:44:34;;;;;;;;;;;12.80;99.90;;;;;;4957082;29;19915;-80
2022/06/26 02:47:00;;;;;;;;;;;12.70;99.90;;;;;;4956827;29;19910;-79
2022/06/26 02:49:25;;;;;;;;;;;12.90;99.90;;;;;;4956501;28;19922;-79
2022/06/26 02:51:51;;;;;;;;;;;12.90;99.90;;;;;;4956911;29;19915;-78
2022/06/26 02:54:17;;;;;;;;;;;13.00;99.90;;;;;;4956970;29;19942;-79
2022/06/26 02:56:42;;;;;;;;;;;12.90;99.90;;;;;;4956802;29;19911;-77
2022/06/26 02:59:08;;;;;;;;;;;12.90;99.90;;;;;;4956619;29;20001;-78
2022/06/26 03:01:33;;;;;;;;;;;12.80;99.90;;;;;;4956216;28;20328;-79
2022/06/26 03:03:59;;;;;;;;;;;12.80;99.90;;;;;;4956644;29;20038;-80
2022/06/26 03:06:24;;;;;;;;;;;12.90;99.90;;;;;;4956635;29;19911;-78
2022/06/26 03:08:50;;;;;;;;;;;12.90;99.90;;;;;;4956546;29;20371;-80
2022/06/26 03:11:16;;;;;;;;;;;12.80;99.90;;;;;;4956079;28;19911;-79
2022/06/26 03:13:41;;;;;;;;;;;12.80;99.90;;;;;;4956423;29;20287;-80
2022/06/26 03:16:07;;;;;;;;;;;12.90;99.90;;;;;;4956461;29;19911;-79
2022/06/26 03:18:32;;;;;;;;;;;13.00;99.90;;;;;;4956430;29;19910;-79
2022/06/26 03:20:58;;;;;;;;;;;13.20;99.90;;;;;;4955227;28;19938;-79
2022/06/26 03:26:08;;;;;;;;;;;13.10;99.90;;;;;;4956033;29;19917;-79
2022/06/26 03:28:33;;;;;;;;;;;13.00;99.90;;;;;;4956176;29;19910;-78
2022/06/26 03:30:59;;;;;;;;;;;12.90;99.90;;;;;;4938529;29;19918;-80
2022/06/26 03:33:24;;;;;;;;;;;13.00;99.90;;;;;;4956192;29;20398;-79
2022/06/26 03:35:50;;;;;;;;;;;13.00;99.90;;;;;;4955704;29;19910;-79
2022/06/26 03:38:16;;;;;;;;;;;12.90;99.90;;;;;;4956248;29;19950;-78
2022/06/26 03:40:41;;;;;;;;;;;12.80;99.90;;;;;;4955592;28;20000;-79
2022/06/26 03:43:09;;;;;;;;;;;12.90;99.90;;;;;;4955927;29;19914;-79
2022/06/26 03:45:35;;;;;;;;;;;12.90;99.90;;;;;;4955951;29;19915;-80
2022/06/26 03:48:00;;;;;;;;;;;12.90;99.90;;;;;;4955808;28;20005;-79
2022/06/26 03:50:26;;;;;;;;;;;13.10;99.90;;;;;;4955353;28;19923;-79
2022/06/26 03:52:51;;;;;;;;;;;13.30;99.90;;;;;;4938570;29;19910;-78
2022/06/26 03:55:17;;;;;;;;;;;13.30;99.90;;;;;;4955857;29;20335;-78
2022/06/26 03:57:43;;;;;;;;;;;13.20;99.90;;;;;;4955668;29;19962;-80
2022/06/26 04:00:08;;;;;;;;;;;13.20;99.90;;;;;;4955351;28;19911;-79
2022/06/26 04:02:34;;;;;;;;;;;13.20;99.90;;;;;;4955643;29;19911;-79
2022/06/26 04:05:00;;;;;;;;;;;13.20;99.90;;;;;;4955525;29;19997;-78
2022/06/26 04:07:25;;;;;;;;;;;13.30;99.90;;;;;;4955692;29;19911;-79
2022/06/26 04:09:51;;;;;;;;;;;13.30;99.90;;;;;;4955290;28;19965;-79
2022/06/26 04:12:16;;;;;;;;;;;13.40;99.90;;;;;;4955561;29;19977;-78
2022/06/26 04:14:42;;;;;;;;;;;13.30;99.90;;;;;;4955594;29;19911;-78
2022/06/26 04:17:07;;;;;;;;;;;13.30;99.90;;;;;;4955426;29;20423;-80
2022/06/26 04:19:33;;;;;;;;;;;13.30;99.90;;;;;;4955406;28;19917;-78
2022/06/26 04:21:58;;;;;;;;;;;13.40;99.90;;;;;;4955273;29;19911;-79
2022/06/26 04:24:24;;;;;;;;;;;13.40;99.90;;;;;;4955472;29;19915;-78
2022/06/26 04:26:50;;;;;;;;;;;13.30;99.90;;;;;;4955408;29;20256;-80
2022/06/26 04:29:15;;;;;;;;;;;13.30;99.90;;;;;;4955326;29;19911;-79
2022/06/26 04:31:41;;;;;;;;;;;13.20;99.90;;;;;;4971518;28;19914;-79
2022/06/26 04:34:07;;;;;;;;;;;13.30;99.90;;;;;;4974460;28;19925;-78
2022/06/26 04:36:32;;;;;;;;;;;13.20;99.90;;;;;;4974727;28;20370;-79
2022/06/26 04:38:58;;;;;;;;;;;13.20;99.90;;;;;;4974522;28;19910;-79
2022/06/26 04:41:34;;;;;;;;;;;13.20;99.90;;;;;;4974053;28;19917;-79
2022/06/26 04:44:01;;;;;;;;;;;13.20;99.90;;;;;;4974460;28;19965;-79
2022/06/26 04:46:26;;;;;;;;;;;13.30;99.90;;;;;;4956939;28;20354;-79
2022/06/26 04:48:52;;;;;;;;;;;13.20;99.90;;;;;;4974261;28;20001;-80
2022/06/26 04:51:18;;;;;;;;;;;13.30;99.90;;;;;;4974040;28;19914;-78
2022/06/26 04:53:45;;;;;;;;;;;13.40;99.90;;;;;;4974562;28;19910;-79
2022/06/26 04:56:10;;;;;;;;;;;13.40;99.90;;;;;;4974345;28;19961;-79
2022/06/26 04:58:36;;;;;;;;;;;13.40;99.90;;;;;;4974360;28;19910;-79
2022/06/26 05:01:02;;;;;;;;;;;13.50;99.90;;;;;;4973946;28;20271;-79
2022/06/26 05:03:28;;;;;;;;;;;13.60;99.90;;;;;;4956915;28;19914;-79
2022/06/26 05:05:54;;;;;;;;;;;13.60;99.90;;;;;;4974355;28;20482;-79
2022/06/26 05:08:19;;;;;;;;;;;13.60;99.90;;;;;;4974261;28;19964;-80
2022/06/26 05:10:45;;;;;;;;;;;13.60;99.90;;;;;;4973977;28;19917;-79
2022/06/26 05:13:11;;;;;;;;;;;13.70;99.90;;;;;;4974201;28;19920;-79
2022/06/26 05:15:36;;;;;;;;;;;13.80;99.90;;;;;;4974730;28;19911;-78
2022/06/26 05:18:02;;;;;;;;;;;13.70;99.90;;;;;;4974158;28;20398;-80
2022/06/26 05:20:27;;;;;;;;;;;13.60;99.90;;;;;;4973890;28;19917;-79
2022/06/26 05:22:53;;;;;;;;;;;13.60;99.90;;;;;;4973897;28;19942;-79
2022/06/26 05:25:19;;;;;;;;;;;13.60;99.90;;;;;;4974097;28;19910;-80
2022/06/26 05:27:44;;;;;;;;;;;13.70;99.90;;;;;;4974142;28;19914;-79
2022/06/26 05:30:10;;;;;;;;;;;13.80;99.90;;;;;;4970957;28;19922;-79
2022/06/26 05:32:36;;;;;;;;;;;13.90;99.90;;;;;;4954810;29;20014;-79
2022/06/26 05:35:01;;;;;;;;;;;14.10;99.90;;;;;;4954652;29;20491;-79
2022/06/26 05:37:27;;;;;;;;;;;14.20;99.90;;;;;;4954670;29;19954;-79
2022/06/26 05:39:52;;;;;;;;;;;14.30;99.90;;;;;;4954665;28;19918;-79
2022/06/26 05:42:18;;;;;;;;;;;14.50;99.90;;;;;;4954617;28;19965;-78
2022/06/26 05:44:44;;;;;;;;;;;14.60;99.90;;;;;;4956803;28;19914;-78
2022/06/26 05:47:09;;;;;;;;;;;14.50;99.90;;;;;;4957887;29;20006;-80
2022/06/26 05:49:35;;;;;;;;;;;14.70;99.90;;;;;;4957889;29;19926;-80
2022/06/26 05:52:00;;;;;;;;;;;14.80;99.90;;;;;;4957575;28;19918;-79
2022/06/26 05:54:26;;;;;;;;;;;14.70;99.90;;;;;;4957972;28;20284;-79
2022/06/26 05:56:51;;;;;;;;;;;14.80;99.90;;;;;;4957991;29;19915;-80
2022/06/26 05:59:17;;;;;;;;;;;14.90;99.90;;;;;;4957658;29;20002;-80
2022/06/26 06:01:43;;;;;;;;;;;14.90;99.90;;;;;;4957400;28;19997;-80
2022/06/26 06:04:08;;;;;;;;;;;14.90;99.90;;;;;;4957725;28;20371;-79
2022/06/26 06:06:34;;;;;;;;;;;15.00;99.90;;;;;;4957716;29;19953;-80
2022/06/26 06:09:00;;;;;;;;;;;15.10;99.90;;;;;;4957853;29;19910;-79
2022/06/26 06:11:26;;;;;;;;;;;15.20;99.90;;;;;;4957118;28;19910;-79
2022/06/26 06:13:51;;;;;;;;;;;15.20;99.90;;;;;;4957594;29;19915;-80
2022/06/26 06:16:17;;;;;;;;;;;15.40;99.90;;;;;;4957569;29;20364;-79
2022/06/26 06:18:43;;;;;;;;;;;15.30;99.90;;;;;;4957558;28;20306;-79
2022/06/26 06:21:08;;;;;;;;;;;15.40;99.90;;;;;;4957151;28;19922;-79
2022/06/26 06:23:34;;;;;;;;;;;15.50;99.90;;;;;;4957130;29;19914;-79
2022/06/26 06:26:00;;;;;;;;;;;15.70;99.90;;;;;;4957491;29;19910;-81
2022/06/26 06:28:25;;;;;;;;;;;15.80;99.90;;;;;;4957397;29;19978;-79
2022/06/26 06:30:51;;;;;;;;;;;15.70;99.90;;;;;;4957103;28;19980;-79
2022/06/26 06:33:17;;;;;;;;;;;15.90;99.90;;;;;;4957368;28;19918;-80
2022/06/26 06:35:42;;;;;;;;;;;16.00;99.90;;;;;;4939980;29;19915;-79
2022/06/26 06:38:08;;;;;;;;;;;16.10;99.90;;;;;;4957327;29;19910;-79
2022/06/26 06:40:34;;;;;;;;;;;16.00;99.90;;;;;;4956651;28;19933;-79
2022/06/26 06:43:00;;;;;;;;;;;16.10;99.90;;;;;;4957096;29;20371;-79
2022/06/26 06:45:26;;;;;;;;;;;16.20;99.90;;;;;;4957069;28;19917;-79
2022/06/26 06:47:51;;;;;;;;;;;16.50;99.90;;;;;;4957002;29;19923;-80
2022/06/26 06:50:17;;;;;;;;;;;16.60;99.90;;;;;;4939320;28;19981;-80
2022/06/26 06:52:43;;;;;;;;;;;16.80;99.90;;;;;;4956887;29;20271;-80
2022/06/26 06:55:08;;;;;;;;;;;17.00;99.90;;;;;;4955931;28;19910;-80
2022/06/26 06:57:34;;;;;;;;;;;16.80;99.90;;;;;;4956729;29;19911;-79
2022/06/26 07:00:02;;;;;;;;;;;17.00;99.90;;;;;;4939129;29;20207;-79
2022/06/26 07:02:31;;;;;;;;;;;17.20;99.90;;;;;;4956220;28;19941;-79
2022/06/26 07:04:56;;;;;;;;;;;17.10;99.90;;;;;;4956623;29;19914;-79
2022/06/26 07:07:22;;;;;;;;;;;17.20;99.90;;;;;;4939377;29;20382;-78
2022/06/26 07:09:47;;;;;;;;;;;17.40;99.90;;;;;;4956505;29;19942;-80
2022/06/26 07:12:13;;;;;;;;;;;17.40;99.90;;;;;;4956225;29;20396;-80
2022/06/26 07:14:38;;;;;;;;;;;17.40;99.90;;;;;;4956532;29;19911;-79
2022/06/26 07:17:04;;;;;;;;;;;17.50;99.90;;;;;;4956542;29;19957;-80
2022/06/26 07:19:30;;;;;;;;;;;17.60;99.90;;;;;;4956406;29;19918;-79
2022/06/26 07:21:56;;;;;;;;;;;17.80;99.90;;;;;;4955936;28;20333;-78
2022/06/26 07:24:21;;;;;;;;;;;17.70;99.90;;;;;;4956344;28;19926;-80
2022/06/26 07:26:47;;;;;;;;;;;17.80;99.90;;;;;;4956297;28;19911;-80
2022/06/26 07:29:12;;;;;;;;;;;18.10;99.90;;;;;;4956253;29;20279;-79
2022/06/26 07:31:38;;;;;;;;;;;18.60;99.90;;;;;;4955816;28;19945;-79
2022/06/26 07:34:13;;;;;;;;;;;18.80;99.90;;;;;;4956124;28;19917;-79
2022/06/26 07:36:39;;;;;;;;;;;18.80;99.90;;;;;;4956010;29;19911;-80
2022/06/26 07:39:04;;;;;;;;;;;18.80;99.90;;;;;;4956037;29;19917;-79
2022/06/26 07:41:30;;;;;;;;;;;18.70;99.90;;;;;;4955495;29;19914;-80
2022/06/26 07:43:55;;;;;;;;;;;19.10;99.90;;;;;;4955913;28;19941;-79
2022/06/26 07:46:21;;;;;;;;;;;19.30;99.90;;;;;;4955896;29;19915;-79
2022/06/26 07:48:47;;;;;;;;;;;19.90;99.90;;;;;;4955665;29;19961;-79
2022/06/26 07:51:12;;;;;;;;;;;21.10;99.90;;;;;;4955550;28;20405;-78
2022/06/26 07:53:38;;;;;;;;;;;21.50;99.90;;;;;;4955847;29;19914;-80
2022/06/26 07:56:04;;;;;;;;;;;21.90;99.90;;;;;;4955773;28;20303;-80
2022/06/26 07:58:29;;;;;;;;;;;23.40;99.90;;;;;;4938444;29;19917;-79
2022/06/26 08:00:55;;;;;;;;;;;23.70;99.90;;;;;;4955415;28;19910;-80
2022/06/26 08:03:21;;;;;;;;;;;22.90;99.90;;;;;;4955631;29;20077;-79
2022/06/26 08:05:46;;;;;;;;;;;24.20;99.90;;;;;;4955626;28;19911;-80
2022/06/26 08:08:12;;;;;;;;;;;27.30;98.10;;;;;;4955297;28;20307;-80
2022/06/26 08:10:38;;;;;;;;;;;28.00;92.30;;;;;;4955214;28;20298;-81
2022/06/26 08:13:04;;;;;;;;;;;28.30;90.90;;;;;;4955563;29;20446;-81
2022/06/26 08:15:30;;;;;;;;;;;28.50;89.90;;;;;;4955564;29;20372;-80
2022/06/26 08:17:56;;;;;;;;;;;28.30;89.80;;;;;;4955393;29;19911;-81
2022/06/26 08:20:21;;;;;;;;;;;29.20;89.30;;;;;;4955543;29;19914;-81
2022/06/26 08:22:47;;;;;;;;;;;28.90;86.30;;;;;;4955056;28;19910;-80
2022/06/26 08:25:12;;;;;;;;;;;27.20;88.00;;;;;;4955464;28;20306;-80
2022/06/26 08:27:38;;;;;;;;;;;27.30;89.80;;;;;;4955293;29;19917;-81
2022/06/26 08:30:04;;;;;;;;;;;27.80;90.00;;;;;;4955407;28;19911;-81
2022/06/26 08:32:30;;;;;;;;;;;25.20;91.20;;;;;;4954910;28;19938;-80
2022/06/26 08:34:55;;;;;;;;;;;25.40;91.80;;;;;;4955060;28;19911;-81
2022/06/26 08:37:21;;;;;;;;;;;25.50;91.20;;;;;;4938033;29;20001;-79
2022/06/26 08:39:47;;;;;;;;;;;25.30;91.40;;;;;;4955212;29;19911;-80
2022/06/26 08:42:12;;;;;;;;;;;25.20;91.40;;;;;;4954741;28;19918;-80
2022/06/26 08:44:42;;;;;;;;;;;25.70;91.40;;;;;;4955093;29;19914;-79
2022/06/26 08:47:09;;;;;;;;;;;25.50;85.60;;;;;;4954825;29;20442;-81
2022/06/26 08:49:34;;;;;;;;;;;25.20;88.90;;;;;;4954960;29;19922;-80
2022/06/26 08:52:00;;;;;;;;;;;25.90;90.10;;;;;;4954599;28;19911;-81
2022/06/26 08:54:26;;;;;;;;;;;26.40;88.50;;;;;;4955142;29;19965;-81
2022/06/26 08:56:52;;;;;;;;;;;26.50;86.80;;;;;;4955102;29;19914;-81
2022/06/26 08:59:18;;;;;;;;;;;26.90;84.50;;;;;;4954777;29;19946;-80
2022/06/26 09:01:45;;;;;;;;;;;27.70;85.20;;;;;;4937541;29;19953;-79
2022/06/26 09:04:11;;;;;;;;;;;26.60;84.90;;;;;;4954792;29;19919;-79
2022/06/26 09:06:37;;;;;;;;;;;25.90;87.80;;;;;;4955146;29;20426;-80
2022/06/26 09:09:15;;;;;;;;;;;25.50;87.20;;;;;;4954811;29;20390;-80
2022/06/26 09:11:41;;;;;;;;;;;25.80;88.60;;;;;;4954489;28;19958;-79
2022/06/26 09:14:06;;;;;;;;;;;24.80;90.10;;;;;;4954954;29;19911;-79
2022/06/26 09:16:32;;;;;;;;;;;23.90;90.80;;;;;;4954911;29;19937;-80
2022/06/26 09:19:09;;;;;;;;;;;22.80;92.30;;;;;;4956123;28;20326;-79
2022/06/26 09:21:34;;;;;;;;;;;21.70;95.50;;;;;;4958199;28;19910;-80
2022/06/26 09:24:00;;;;;;;;;;;21.30;98.10;;;;;;4958506;29;19965;-81
2022/06/26 09:26:25;;;;;;;;;;;21.30;98.40;;;;;;4958460;28;20259;-79
2022/06/26 09:28:51;;;;;;;;;;;22.00;95.00;;;;;;4941250;29;19964;-78
2022/06/26 09:31:20;;;;;;;;;;;22.90;94.30;;;;;;4958074;28;19911;-80
2022/06/26 09:33:46;;;;;;;;;;;24.00;91.00;;;;;;4958450;29;19911;-80
2022/06/26 09:36:16;;;;;;;;;;;24.00;90.40;;;;;;4958355;28;19922;-80
2022/06/26 09:38:47;;;;;;;;;;;24.60;90.90;;;;;;4958342;29;20391;-79
2022/06/26 09:41:13;;;;;;;;;;;25.30;91.10;;;;;;4957837;28;19915;-79
2022/06/26 09:43:41;;;;;;;;;;;26.30;88.20;;;;;;4958134;29;19921;-80
2022/06/26 09:46:07;;;;;;;;;;;26.30;87.90;;;;;;4957731;29;19957;-81
2022/06/26 09:48:33;;;;;;;;;;;26.40;87.10;;;;;;4958068;29;19910;-79
2022/06/26 09:50:59;;;;;;;;;;;27.00;85.70;;;;;;4957511;28;20466;-80
2022/06/26 09:53:26;;;;;;;;;;;27.30;85.30;;;;;;4958011;29;19933;-79
2022/06/26 09:55:53;;;;;;;;;;;26.90;85.10;;;;;;4957978;28;19921;-80
2022/06/26 09:58:18;;;;;;;;;;;27.00;84.50;;;;;;4957663;29;20438;-81
2022/06/26 10:06:25;;;;;;;;;;;27.00;83.50;;;;;;4958005;29;19911;-80
2022/06/26 10:06:26;;;;;;;;;;;27.00;84.20;;;;;;4957547;29;19952;-80
2022/06/26 10:08:52;;;;;;;;;;;27.00;84.60;;;;;;4957937;29;19952;-79
2022/06/26 10:11:18;;;;;;;;;;;27.30;84.20;;;;;;4957173;28;19910;-81
2022/06/26 10:13:44;;;;;;;;;;;29.10;84.80;;;;;;4957746;29;20390;-79
2022/06/26 10:16:33;;;;;;;;;;;28.90;83.10;;;;;;4957716;29;19949;-81
2022/06/26 10:19:05;;;;;;;;;;;27.30;81.90;;;;;;4938978;29;19910;-81
2022/06/26 10:21:34;;;;;;;;;;;25.10;85.20;;;;;;4957197;28;19918;-80
2022/06/26 10:24:02;;;;;;;;;;;25.10;87.40;;;;;;4957469;29;19914;-80
2022/06/26 10:26:27;;;;;;;;;;;24.60;89.00;;;;;;4957410;29;20397;-80
2022/06/26 10:29:06;;;;;;;;;;;24.40;90.40;;;;;;4957531;29;19910;-80
2022/06/26 10:31:47;;;;;;;;;;;24.00;90.80;;;;;;4956808;28;19914;-78
2022/06/26 10:34:19;;;;;;;;;;;24.10;91.30;;;;;;4956915;29;19918;-80
2022/06/26 10:36:55;;;;;;;;;;;23.70;92.00;;;;;;4957128;29;19911;-81
2022/06/26 10:39:21;;;;;;;;;;;23.40;92.40;;;;;;4957190;29;20483;-79
2022/06/26 10:44:45;;;;;;;;;;;23.30;92.00;;;;;;4956712;29;19937;-79
2022/06/26 10:47:17;;;;;;;;;;;23.50;92.50;;;;;;4957024;29;19942;-79
2022/06/26 10:49:50;;;;;;;;;;;23.60;92.70;;;;;;4956755;28;19961;-80
2022/06/26 10:52:26;;;;;;;;;;;23.40;93.30;;;;;;4956546;28;20298;-79
2022/06/26 10:54:52;;;;;;;;;;;24.00;92.00;;;;;;4957075;28;19911;-80
2022/06/26 10:57:23;;;;;;;;;;;24.80;91.20;;;;;;4939697;29;19915;-80
2022/06/26 10:59:50;;;;;;;;;;;25.70;90.40;;;;;;4956821;29;19911;-80
2022/06/26 11:02:15;;;;;;;;;;;25.50;90.50;;;;;;4956350;28;20268;-78
2022/06/26 11:04:49;;;;;;;;;;;26.20;89.20;;;;;;4956614;28;19925;-80
2022/06/26 11:07:15;;;;;;;;;;;26.90;88.30;;;;;;4956608;29;19910;-79
2022/06/26 11:09:41;;;;;;;;;;;27.90;87.80;;;;;;4956433;29;19989;-81
2022/06/26 11:12:06;;;;;;;;;;;27.70;86.10;;;;;;4956245;28;19910;-79
2022/06/26 11:14:32;;;;;;;;;;;28.60;85.50;;;;;;4956547;29;20487;-81
2022/06/26 11:16:58;;;;;;;;;;;27.80;83.60;;;;;;4956525;29;20343;-79
2022/06/26 11:19:25;;;;;;;;;;;28.20;84.70;;;;;;4956519;28;19917;-80
2022/06/26 11:22:02;;;;;;;;;;;27.70;85.50;;;;;;4955999;28;19915;-80
2022/06/26 11:24:27;;;;;;;;;;;28.40;84.50;;;;;;4956333;29;19962;-80
2022/06/26 11:26:54;;;;;;;;;;;30.30;82.10;;;;;;4956317;29;19914;-80
2022/06/26 11:29:19;;;;;;;;;;;31.40;79.50;;;;;;4956301;29;19910;-79
2022/06/26 11:31:48;;;;;;;;;;;30.60;80.50;;;;;;4955886;28;20299;-81
2022/06/26 11:34:14;;;;;;;;;;;31.60;79.60;;;;;;4956147;29;20379;-79
2022/06/26 11:36:54;;;;;;;;;;;32.20;76.90;;;;;;4956138;29;20287;-79
2022/06/26 11:39:20;;;;;;;;;;;30.30;78.60;;;;;;4955920;29;19911;-79
2022/06/26 11:41:46;;;;;;;;;;;28.00;81.20;;;;;;4955071;28;19941;-79
2022/06/26 11:44:12;;;;;;;;;;;26.00;85.00;;;;;;4956021;29;20001;-80
2022/06/26 11:46:38;;;;;;;;;;;25.10;87.00;;;;;;4955771;29;20393;-81
2022/06/26 11:49:03;;;;;;;;;;;24.50;89.70;;;;;;4955606;28;19911;-79
2022/06/26 11:51:30;;;;;;;;;;;23.90;90.50;;;;;;4955678;28;20364;-79
2022/06/26 11:53:55;;;;;;;;;;;23.80;91.20;;;;;;4955803;28;19958;-80
2022/06/26 11:56:23;;;;;;;;;;;23.60;91.80;;;;;;4955928;28;19953;-80
2022/06/26 11:58:50;;;;;;;;;;;24.00;91.30;;;;;;4955416;28;19911;-80
2022/06/26 12:01:16;;;;;;;;;;;24.50;91.20;;;;;;4938465;29;19910;-81
2022/06/26 12:03:49;;;;;;;;;;;26.50;87.70;;;;;;4955533;29;20294;-81
2022/06/26 12:06:30;;;;;;;;;;;27.60;83.90;;;;;;4955688;29;19917;-81
2022/06/26 12:08:59;;;;;;;;;;;29.30;82.60;;;;;;4955595;29;19918;-80
2022/06/26 12:11:24;;;;;;;;;;;29.90;80.30;;;;;;4956041;28;19910;-79
2022/06/26 12:13:50;;;;;;;;;;;31.00;80.30;;;;;;4974818;28;19910;-80
2022/06/26 12:16:15;;;;;;;;;;;30.40;78.30;;;;;;4957496;28;19910;-79
2022/06/26 12:18:41;;;;;;;;;;;29.50;79.60;;;;;;4974703;28;19914;-79
2022/06/26 12:21:20;;;;;;;;;;;30.20;78.40;;;;;;4974696;28;19910;-80
2022/06/26 12:23:46;;;;;;;;;;;31.30;77.70;;;;;;4955325;29;19919;-81
2022/06/26 12:26:13;;;;;;;;;;;31.20;75.60;;;;;;4955433;29;19922;-79
2022/06/26 12:28:43;;;;;;;;;;;31.00;73.80;;;;;;4955447;29;19933;-80
2022/06/26 12:31:09;;;;;;;;;;;29.80;75.10;;;;;;4955375;29;20075;-79
2022/06/26 12:33:35;;;;;;;;;;;28.10;76.60;;;;;;4972712;28;20449;-79
2022/06/26 12:36:00;;;;;;;;;;;27.40;77.00;;;;;;4974541;28;19911;-80
2022/06/26 12:38:27;;;;;;;;;;;27.70;78.50;;;;;;4974585;28;20401;-79
2022/06/26 12:40:53;;;;;;;;;;;28.40;77.70;;;;;;4974447;28;19921;-80
2022/06/26 12:43:19;;;;;;;;;;;28.60;77.50;;;;;;4973882;28;20013;-80
2022/06/26 12:45:44;;;;;;;;;;;29.30;76.50;;;;;;4974462;28;19997;-80
2022/06/26 12:48:10;;;;;;;;;;;29.90;76.60;;;;;;4974638;28;19917;-80
2022/06/26 12:50:36;;;;;;;;;;;30.00;74.70;;;;;;4974413;28;19928;-80
2022/06/26 12:53:02;;;;;;;;;;;30.20;75.80;;;;;;4975337;28;19910;-80
2022/06/26 12:55:27;;;;;;;;;;;30.60;75.70;;;;;;4978447;28;19957;-80
2022/06/26 12:57:53;;;;;;;;;;;30.30;74.00;;;;;;4978206;28;19910;-80
2022/06/26 13:00:18;;;;;;;;;;;30.60;72.80;;;;;;4978324;28;19910;-79
2022/06/26 13:02:44;;;;;;;;;;;30.20;72.80;;;;;;4977986;28;20298;-79
2022/06/26 13:05:10;;;;;;;;;;;30.10;74.60;;;;;;4978112;28;19957;-80
2022/06/26 13:07:35;;;;;;;;;;;30.50;73.20;;;;;;4978116;28;20287;-80
2022/06/26 13:10:01;;;;;;;;;;;30.20;72.90;;;;;;4978023;28;19950;-80
2022/06/26 13:12:27;;;;;;;;;;;29.60;74.50;;;;;;4977825;28;19949;-80
2022/06/26 13:14:52;;;;;;;;;;;30.00;75.30;;;;;;4978051;28;19921;-81
2022/06/26 13:17:18;;;;;;;;;;;30.60;73.10;;;;;;4977989;28;19910;-80
2022/06/26 13:19:44;;;;;;;;;;;30.20;73.90;;;;;;4978065;28;19910;-80
2022/06/26 13:22:09;;;;;;;;;;;30.70;71.50;;;;;;4977515;28;19917;-80
2022/06/26 13:24:35;;;;;;;;;;;29.60;71.60;;;;;;4977802;28;19918;-81
2022/06/26 13:27:01;;;;;;;;;;;28.40;72.80;;;;;;4977805;28;19993;-79
2022/06/26 13:29:26;;;;;;;;;;;29.10;74.10;;;;;;4977798;28;20005;-79
2022/06/26 13:31:52;;;;;;;;;;;29.70;73.10;;;;;;4977523;28;19914;-79
2022/06/26 13:34:18;;;;;;;;;;;30.40;73.30;;;;;;4977749;28;19914;-80
2022/06/26 13:36:44;;;;;;;;;;;31.10;71.90;;;;;;4977609;28;19910;-80
2022/06/26 13:39:09;;;;;;;;;;;32.00;71.70;;;;;;4977715;28;19914;-80
2022/06/26 13:41:35;;;;;;;;;;;33.10;69.90;;;;;;4977569;28;20367;-80
2022/06/26 13:44:01;;;;;;;;;;;32.40;70.60;;;;;;4977161;28;19914;-79
2022/06/26 13:46:27;;;;;;;;;;;30.90;70.40;;;;;;4977252;28;19914;-80
2022/06/26 13:48:52;;;;;;;;;;;29.40;72.60;;;;;;4977278;28;19965;-80
2022/06/26 13:51:18;;;;;;;;;;;28.40;72.80;;;;;;4977439;28;19918;-81
2022/06/26 13:53:44;;;;;;;;;;;27.40;74.50;;;;;;4976882;28;20410;-81
2022/06/26 13:56:09;;;;;;;;;;;28.40;75.10;;;;;;4977183;28;19934;-80
2022/06/26 13:58:35;;;;;;;;;;;28.80;74.80;;;;;;4977131;28;20270;-80
2022/06/26 14:01:02;;;;;;;;;;;29.20;73.90;;;;;;4977288;28;19933;-81
2022/06/26 14:03:28;;;;;;;;;;;30.30;73.10;;;;;;4959418;28;19917;-81
2022/06/26 14:05:54;;;;;;;;;;;30.30;72.50;;;;;;4976645;28;19910;-80
2022/06/26 14:08:20;;;;;;;;;;;30.10;72.20;;;;;;4977124;28;19917;-79
2022/06/26 14:10:46;;;;;;;;;;;30.50;73.30;;;;;;4976930;28;19910;-81
2022/06/26 14:13:11;;;;;;;;;;;31.60;72.10;;;;;;4976536;28;19914;-81
2022/06/26 14:15:37;;;;;;;;;;;30.90;72.00;;;;;;4959631;28;19941;-80
2022/06/26 14:18:03;;;;;;;;;;;30.10;72.70;;;;;;4976971;28;19910;-81
2022/06/26 14:20:30;;;;;;;;;;;30.20;72.50;;;;;;4976771;28;20401;-81
2022/06/26 14:25:59;;;;;;;;;;;28.10;74.80;;;;;;4976623;28;19933;-80
2022/06/26 14:28:29;;;;;;;;;;;27.70;76.20;;;;;;4976756;28;20009;-80